createdAt,value
2022-09-13T00:00:49.600Z,15.96
2022-09-13T00:03:16.033Z,15.83
2022-09-13T00:05:42.404Z,15.71
2022-09-13T00:08:09.191Z,15.64
2022-09-13T00:10:37.378Z,15.47
2022-09-13T00:13:04.150Z,15.24
2022-09-13T00:15:30.901Z,15.15
2022-09-13T00:17:57.303Z,15.17
2022-09-13T00:20:23.875Z,15.14
2022-09-13T00:22:50.190Z,14.93
2022-09-13T00:25:16.898Z,14.84
2022-09-13T00:27:44.619Z,14.88
2022-09-13T00:30:11.439Z,14.93
2022-09-13T00:32:38.124Z,14.91
2022-09-13T00:35:05.595Z,14.86
2022-09-13T00:37:33.279Z,14.87
2022-09-13T00:40:00.117Z,14.90
2022-09-13T00:42:27.606Z,14.88
2022-09-13T00:44:55.948Z,14.84
2022-09-13T00:47:37.643Z,14.83
2022-09-13T00:50:07.350Z,14.81
2022-09-13T00:52:34.694Z,14.87
2022-09-13T00:55:06.560Z,14.69
2022-09-13T00:57:35.024Z,14.73
2022-09-13T01:00:13.050Z,14.82
2022-09-13T01:02:53.961Z,14.76
2022-09-13T01:05:22.380Z,14.80
2022-09-13T01:07:49.054Z,14.76
2022-09-13T01:10:15.478Z,14.66
2022-09-13T01:12:46.099Z,14.66
2022-09-13T01:15:12.500Z,14.72
2022-09-13T01:17:39.411Z,14.66
2022-09-13T01:20:06.922Z,14.75
2022-09-13T01:22:36.234Z,14.69
2022-09-13T01:25:16.383Z,14.80
2022-09-13T01:27:42.745Z,14.81
2022-09-13T01:30:15.067Z,14.80
2022-09-13T01:32:59.883Z,14.78
2022-09-13T01:35:44.739Z,14.71
2022-09-13T01:38:11.163Z,14.74
2022-09-13T01:40:48.866Z,14.63
2022-09-13T01:43:28.658Z,14.71
2022-09-13T01:45:55.045Z,14.64
2022-09-13T01:48:24.961Z,14.55
2022-09-13T01:51:10.084Z,14.72
2022-09-13T01:53:56.701Z,14.71
2022-09-13T01:56:26.838Z,14.80
2022-09-13T01:58:55.591Z,14.76
2022-09-13T02:01:42.749Z,14.73
2022-09-13T02:04:13.158Z,14.77
2022-09-13T02:06:47.815Z,14.69
2022-09-13T02:09:21.601Z,14.73
2022-09-13T02:11:50.905Z,14.75
2022-09-13T02:14:20.550Z,14.68
2022-09-13T02:16:56.526Z,14.66
2022-09-13T02:19:36.039Z,14.64
2022-09-13T02:22:03.521Z,14.64
2022-09-13T02:24:32.269Z,14.48
2022-09-13T02:27:01.382Z,14.51
2022-09-13T02:29:29.460Z,14.46
2022-09-13T02:32:03.867Z,14.45
2022-09-13T02:34:38.189Z,14.48
2022-09-13T02:37:06.922Z,14.61
2022-09-13T02:39:35.789Z,14.56
2022-09-13T02:42:12.334Z,14.44
2022-09-13T02:44:46.522Z,14.49
2022-09-13T02:47:22.602Z,14.45
2022-09-13T02:50:06.203Z,14.46
2022-09-13T02:52:41.614Z,14.50
2022-09-13T02:55:20.320Z,14.44
2022-09-13T02:58:00.926Z,14.41
2022-09-13T03:00:28.304Z,14.44
2022-09-13T03:02:56.634Z,14.49
2022-09-13T03:05:23.073Z,14.39
2022-09-13T03:07:50.457Z,14.41
2022-09-13T03:10:17.459Z,14.47
2022-09-13T03:12:53.006Z,14.50
2022-09-13T03:15:24.257Z,14.48
2022-09-13T03:18:02.718Z,14.48
2022-09-13T03:20:43.806Z,14.59
2022-09-13T03:23:28.978Z,14.60
2022-09-13T03:26:01.298Z,14.61
2022-09-13T03:28:35.628Z,14.59
2022-09-13T03:31:07.873Z,14.55
2022-09-13T03:33:36.993Z,14.64
2022-09-13T03:36:09.563Z,14.83
2022-09-13T03:38:39.359Z,14.85
2022-09-13T03:41:08.727Z,14.89
2022-09-13T03:43:46.339Z,15.00
2022-09-13T03:46:17.528Z,15.05
2022-09-13T03:48:43.926Z,15.09
2022-09-13T03:51:11.213Z,15.14
2022-09-13T03:53:40.071Z,15.22
2022-09-13T03:56:13.523Z,15.20
2022-09-13T03:58:39.838Z,15.35
2022-09-13T04:01:06.343Z,15.30
2022-09-13T04:03:32.745Z,15.38
2022-09-13T04:05:59.060Z,15.34
2022-09-13T04:08:25.365Z,15.39
2022-09-13T04:10:54.776Z,15.37
2022-09-13T04:13:22.927Z,15.36
2022-09-13T04:15:50.173Z,15.36
2022-09-13T04:18:17.382Z,15.35
2022-09-13T04:20:43.769Z,15.27
2022-09-13T04:23:10.115Z,15.32
2022-09-13T04:25:38.597Z,15.33
2022-09-13T04:28:04.924Z,15.51
2022-09-13T04:30:31.310Z,15.35
2022-09-13T04:32:57.815Z,15.40
2022-09-13T04:35:24.125Z,15.37
2022-09-13T04:37:50.450Z,15.39
2022-09-13T04:40:16.980Z,15.28
2022-09-13T04:42:46.358Z,15.34
2022-09-13T04:45:12.689Z,15.30
2022-09-13T04:47:39.009Z,15.38
2022-09-13T04:50:05.470Z,15.28
2022-09-13T04:52:31.917Z,15.07
2022-09-13T04:55:01.489Z,15.14
2022-09-13T04:57:28.585Z,15.03
2022-09-13T04:59:54.882Z,15.05
2022-09-13T05:02:21.314Z,15.14
2022-09-13T05:04:47.658Z,15.05
2022-09-13T05:07:13.986Z,15.03
2022-09-13T05:09:40.322Z,14.97
2022-09-13T05:12:06.730Z,15.12
2022-09-13T05:14:33.067Z,14.94
2022-09-13T05:16:59.404Z,14.89
2022-09-13T05:19:25.929Z,15.08
2022-09-13T05:21:52.233Z,15.04
2022-09-13T05:24:18.580Z,15.05
2022-09-13T05:26:44.946Z,15.22
2022-09-13T05:29:11.251Z,15.18
2022-09-13T05:31:39.378Z,15.14
2022-09-13T05:34:07.254Z,14.97
2022-09-13T05:36:34.120Z,14.99
2022-09-13T05:39:26.339Z,14.91
2022-09-13T05:41:47.304Z,15.02
2022-09-13T05:44:14.045Z,15.05
2022-09-13T05:46:41.066Z,14.97
2022-09-13T05:49:07.377Z,15.11
2022-09-13T05:51:33.746Z,15.11
2022-09-13T05:54:00.113Z,15.14
2022-09-13T05:56:28.493Z,15.08
2022-09-13T05:58:55.501Z,15.13
2022-09-13T06:01:26.165Z,15.15
2022-09-13T06:03:53.993Z,15.23
2022-09-13T06:06:20.845Z,15.23
2022-09-13T06:08:47.577Z,15.16
2022-09-13T06:11:14.714Z,15.20
2022-09-13T06:13:43.227Z,15.23
2022-09-13T06:16:10.485Z,14.96
2022-09-13T06:18:37.285Z,14.83
2022-09-13T06:21:05.154Z,14.92
2022-09-13T06:23:31.629Z,14.88
2022-09-13T06:26:02.062Z,14.96
2022-09-13T06:28:28.575Z,15.16
2022-09-13T06:31:08.606Z,15.16
2022-09-13T06:33:35.788Z,15.43
2022-09-13T06:36:09.907Z,15.38
2022-09-13T06:38:36.322Z,15.47
2022-09-13T06:41:12.903Z,15.55
2022-09-13T06:43:39.394Z,15.57
2022-09-13T06:46:25.413Z,15.75
2022-09-13T06:48:52.758Z,15.77
2022-09-13T06:51:20.562Z,15.93
2022-09-13T06:53:48.334Z,15.86
2022-09-13T06:56:16.418Z,15.95
2022-09-13T06:58:44.133Z,15.70
2022-09-13T07:01:11.467Z,15.51
2022-09-13T07:03:42.046Z,15.69
2022-09-13T07:06:22.685Z,15.62
2022-09-13T07:08:49.838Z,15.64
2022-09-13T07:11:18.316Z,15.71
2022-09-13T07:13:49.107Z,15.63
2022-09-13T07:16:15.470Z,15.94
2022-09-13T07:18:41.874Z,15.76
2022-09-13T07:21:09.284Z,15.76
2022-09-13T07:23:36.546Z,15.86
2022-09-13T07:26:05.516Z,16.16
2022-09-13T07:28:35.428Z,16.29
2022-09-13T07:31:28.889Z,16.28
2022-09-13T07:33:58.465Z,16.39
2022-09-13T07:36:25.323Z,16.17
2022-09-13T07:38:51.715Z,16.04
2022-09-13T07:41:19.668Z,16.21
2022-09-13T07:43:46.600Z,16.39
2022-09-13T07:46:17.849Z,16.52
2022-09-13T07:48:45.405Z,16.60
2022-09-13T07:51:20.712Z,16.38
2022-09-13T07:53:48.006Z,16.43
2022-09-13T07:56:15.577Z,16.96
2022-09-13T07:58:43.344Z,16.99
2022-09-13T08:01:13.069Z,17.01
2022-09-13T08:03:39.674Z,16.95
2022-09-13T08:06:06.767Z,16.81
2022-09-13T08:08:34.199Z,17.04
2022-09-13T08:11:01.519Z,16.73
2022-09-13T08:13:28.912Z,17.06
2022-09-13T08:15:55.648Z,17.05
2022-09-13T08:18:22.324Z,17.24
2022-09-13T08:20:48.679Z,16.90
2022-09-13T08:23:15.028Z,16.90
2022-09-13T08:25:41.411Z,17.12
2022-09-13T08:28:15.603Z,17.27
2022-09-13T08:30:43.519Z,17.13
2022-09-13T08:33:13.187Z,17.25
2022-09-13T08:35:39.517Z,17.67
2022-09-13T08:38:06.526Z,17.79
2022-09-13T08:40:38.832Z,17.45
2022-09-13T08:43:23.913Z,17.83
2022-09-13T08:45:59.200Z,17.44
2022-09-13T08:48:31.951Z,17.68
2022-09-13T08:51:01.270Z,17.18
2022-09-13T08:53:31.668Z,17.20
2022-09-13T08:56:07.299Z,17.37
2022-09-13T08:58:38.876Z,17.39
2022-09-13T09:01:13.319Z,17.26
2022-09-13T09:03:46.725Z,17.18
2022-09-13T09:06:14.733Z,17.14
2022-09-13T09:08:47.019Z,17.06
2022-09-13T09:11:31.538Z,17.34
2022-09-13T09:14:01.676Z,17.49
2022-09-13T09:16:37.641Z,17.59
2022-09-13T09:19:18.340Z,17.59
2022-09-13T09:21:45.050Z,17.68
2022-09-13T09:24:17.555Z,17.84
2022-09-13T09:26:43.902Z,17.65
2022-09-13T09:29:16.185Z,17.66
2022-09-13T09:31:45.641Z,17.66
2022-09-13T09:34:32.511Z,17.72
2022-09-13T09:37:09.881Z,17.61
2022-09-13T09:39:39.276Z,17.93
2022-09-13T09:42:17.307Z,18.07
2022-09-13T09:44:45.835Z,18.07
2022-09-13T09:47:14.286Z,17.90
2022-09-13T09:50:12.292Z,18.16
2022-09-13T09:52:53.711Z,18.45
2022-09-13T09:55:23.198Z,18.85
2022-09-13T09:58:00.462Z,18.62
2022-09-13T10:00:29.872Z,18.76
2022-09-13T10:03:01.112Z,18.59
2022-09-13T10:05:27.733Z,18.37
2022-09-13T10:07:56.674Z,18.51
2022-09-13T10:10:28.815Z,18.77
2022-09-13T10:12:56.484Z,18.88
2022-09-13T10:15:25.555Z,18.67
2022-09-13T10:18:03.192Z,18.49
2022-09-13T10:20:29.639Z,18.70
2022-09-13T10:23:11.290Z,19.23
2022-09-13T10:25:38.289Z,19.01
2022-09-13T10:28:06.782Z,19.40
2022-09-13T10:30:37.287Z,19.02
2022-09-13T10:33:04.991Z,19.35
2022-09-13T10:35:31.913Z,18.70
2022-09-13T10:37:58.266Z,19.09
2022-09-13T10:40:29.439Z,19.19
2022-09-13T10:43:01.657Z,19.80
2022-09-13T10:45:29.934Z,19.19
2022-09-13T10:48:03.538Z,19.11
2022-09-13T10:50:31.397Z,19.07
2022-09-13T10:52:58.695Z,20.14
2022-09-13T10:55:26.880Z,20.42
2022-09-13T10:58:13.669Z,21.08
2022-09-13T11:00:43.016Z,20.65
2022-09-13T11:03:09.295Z,20.24
2022-09-13T11:05:47.823Z,20.09
2022-09-13T11:08:23.570Z,20.11
2022-09-13T11:11:01.258Z,19.99
2022-09-13T11:13:27.558Z,19.95
2022-09-13T11:15:58.238Z,19.99
2022-09-13T11:18:33.306Z,20.18
2022-09-13T11:21:18.441Z,19.53
2022-09-13T11:24:06.046Z,19.05
2022-09-13T11:26:51.486Z,19.18
2022-09-13T11:29:25.725Z,18.98
2022-09-13T11:31:58.392Z,19.36
2022-09-13T11:34:32.622Z,18.48
2022-09-13T11:37:17.917Z,18.94
2022-09-13T11:39:55.576Z,19.06
2022-09-13T11:42:21.869Z,18.87
2022-09-13T11:45:08.484Z,18.61
2022-09-13T11:47:53.263Z,18.55
2022-09-13T11:50:29.541Z,18.87
2022-09-13T11:53:04.609Z,18.48
2022-09-13T11:55:30.934Z,18.10
2022-09-13T11:58:00.301Z,18.79
2022-09-13T12:00:30.144Z,19.17
2022-09-13T12:03:17.579Z,21.05
2022-09-13T12:05:52.562Z,21.48
2022-09-13T12:08:25.399Z,20.59
2022-09-13T12:10:56.673Z,21.17
2022-09-13T12:13:25.694Z,20.47
2022-09-13T12:15:53.797Z,19.31
2022-09-13T12:18:28.867Z,18.62
2022-09-13T12:20:57.575Z,18.70
2022-09-13T12:23:35.981Z,18.52
2022-09-13T12:26:05.903Z,18.07
2022-09-13T12:28:35.396Z,17.98
2022-09-13T12:31:05.106Z,17.56
2022-09-13T12:33:31.514Z,17.83
2022-09-13T12:36:05.807Z,17.76
2022-09-13T12:38:32.159Z,17.84
2022-09-13T12:41:08.470Z,17.85
2022-09-13T12:43:55.822Z,19.50
2022-09-13T12:46:40.806Z,20.64
2022-09-13T12:49:33.310Z,20.06
2022-09-13T12:52:02.742Z,22.64
2022-09-13T12:54:43.876Z,23.33
2022-09-13T12:57:28.409Z,23.17
2022-09-13T13:00:13.274Z,23.10
2022-09-13T13:02:54.621Z,22.69
2022-09-13T13:05:24.385Z,20.60
2022-09-13T13:08:01.249Z,19.96
2022-09-13T13:10:30.668Z,19.05
2022-09-13T13:13:09.774Z,18.44
2022-09-13T13:15:36.078Z,18.10
2022-09-13T13:18:34.897Z,18.71
2022-09-13T13:21:01.211Z,21.34
2022-09-13T13:23:31.080Z,20.72
2022-09-13T13:25:57.743Z,20.10
2022-09-13T13:28:42.527Z,19.46
2022-09-13T13:31:09.676Z,20.06
2022-09-13T13:33:49.578Z,19.45
2022-09-13T13:36:28.839Z,18.78
2022-09-13T13:38:55.833Z,18.44
2022-09-13T13:41:35.255Z,18.53
2022-09-13T13:44:02.626Z,18.28
2022-09-13T13:46:32.930Z,18.91
2022-09-13T13:49:22.287Z,18.13
2022-09-13T13:52:08.681Z,18.39
2022-09-13T13:54:58.343Z,18.46
2022-09-13T13:57:33.903Z,18.29
2022-09-13T14:00:14.986Z,18.35
2022-09-13T14:02:50.494Z,18.00
2022-09-13T14:05:29.241Z,18.54
2022-09-13T14:10:49.561Z,18.42
2022-09-13T14:13:25.681Z,18.77
2022-09-13T14:16:10.517Z,19.34
2022-09-13T14:18:52.224Z,21.59
2022-09-13T14:21:23.903Z,22.42
2022-09-13T14:23:50.743Z,22.81
2022-09-13T14:26:17.314Z,24.16
2022-09-13T14:28:43.706Z,22.60
2022-09-13T14:31:16.781Z,20.99
2022-09-13T14:33:43.215Z,20.31
2022-09-13T14:36:22.529Z,21.73
2022-09-13T14:38:55.481Z,22.84
2022-09-13T14:41:22.770Z,23.68
2022-09-13T14:43:49.807Z,24.12
2022-09-13T14:46:22.389Z,22.49
2022-09-13T14:48:51.731Z,20.93
2022-09-13T14:51:21.143Z,19.93
2022-09-13T14:53:50.231Z,19.55
2022-09-13T14:56:19.806Z,18.75
2022-09-13T14:58:51.996Z,18.41
2022-09-13T15:01:26.659Z,18.32
2022-09-13T15:03:56.131Z,17.98
2022-09-13T15:06:24.926Z,17.96
2022-09-13T15:08:52.427Z,17.74
2022-09-13T15:11:35.939Z,17.49
2022-09-13T15:14:03.862Z,17.41
2022-09-13T15:16:34.242Z,17.49
2022-09-13T15:19:19.205Z,17.32
2022-09-13T15:21:46.668Z,17.58
2022-09-13T15:24:33.201Z,17.78
2022-09-13T15:27:04.512Z,17.51
2022-09-13T15:29:34.856Z,18.90
2022-09-13T15:32:02.278Z,20.39
2022-09-13T15:34:28.971Z,20.92
2022-09-13T15:37:01.134Z,21.68
2022-09-13T15:39:27.702Z,20.39
2022-09-13T15:42:00.929Z,19.97
2022-09-13T15:44:29.734Z,19.45
2022-09-13T15:46:57.596Z,20.90
2022-09-13T15:49:26.472Z,19.40
2022-09-13T15:51:54.006Z,20.23
2022-09-13T15:54:22.746Z,21.21
2022-09-13T15:56:51.826Z,20.82
2022-09-13T15:59:20.061Z,21.04
2022-09-13T16:01:47.997Z,19.14
2022-09-13T16:04:14.352Z,19.71
2022-09-13T16:06:40.963Z,20.67
2022-09-13T16:09:19.099Z,19.04
2022-09-13T16:11:46.405Z,18.23
2022-09-13T16:14:13.146Z,17.84
2022-09-13T16:16:39.740Z,17.19
2022-09-13T16:19:06.091Z,17.22
2022-09-13T16:21:32.494Z,17.85
2022-09-13T16:23:59.195Z,18.04
2022-09-13T16:26:34.271Z,17.69
2022-09-13T16:29:00.691Z,18.93
2022-09-13T16:31:27.118Z,19.28
2022-09-13T16:33:54.040Z,17.82
2022-09-13T16:36:20.404Z,17.68
2022-09-13T16:38:46.710Z,17.20
2022-09-13T16:41:13.048Z,17.10
2022-09-13T16:43:39.424Z,17.01
2022-09-13T16:46:07.148Z,16.77
2022-09-13T16:48:33.833Z,16.91
2022-09-13T16:51:03.764Z,16.77
2022-09-13T16:53:37.524Z,16.64
2022-09-13T16:56:06.803Z,16.50
2022-09-13T16:58:36.005Z,15.93
2022-09-13T17:01:03.715Z,15.36
2022-09-13T17:03:30.015Z,15.04
2022-09-13T17:05:59.762Z,14.86
2022-09-13T17:08:26.167Z,14.63
2022-09-13T17:10:52.478Z,14.38
2022-09-13T17:13:18.859Z,14.26
2022-09-13T17:15:45.294Z,14.36
2022-09-13T17:18:11.694Z,14.34
2022-09-13T17:20:42.978Z,14.42
2022-09-13T17:23:09.507Z,14.52
2022-09-13T17:25:35.917Z,14.30
2022-09-13T17:28:02.454Z,14.33
2022-09-13T17:30:28.862Z,14.30
2022-09-13T17:32:55.176Z,14.21
2022-09-13T17:35:22.665Z,14.22
2022-09-13T17:37:48.991Z,14.18
2022-09-13T17:40:15.584Z,14.14
2022-09-13T17:42:42.314Z,14.06
2022-09-13T17:45:09.214Z,14.05
2022-09-13T17:47:35.540Z,14.04
2022-09-13T17:50:02.142Z,14.05
2022-09-13T17:52:31.553Z,13.89
2022-09-13T17:55:01.053Z,14.00
2022-09-13T17:57:28.095Z,14.02
2022-09-13T17:59:54.902Z,14.14
2022-09-13T18:02:25.928Z,14.04
2022-09-13T18:04:52.455Z,13.98
2022-09-13T18:07:18.975Z,14.10
2022-09-13T18:09:45.407Z,14.12
2022-09-13T18:12:11.927Z,14.20
2022-09-13T18:14:38.950Z,14.28
2022-09-13T18:17:12.840Z,14.27
2022-09-13T18:19:46.248Z,14.24
2022-09-13T18:22:12.968Z,14.23
2022-09-13T18:24:39.330Z,14.33
2022-09-13T18:27:05.778Z,14.24
2022-09-13T18:29:32.888Z,14.23
2022-09-13T18:31:59.215Z,14.41
2022-09-13T18:34:27.721Z,14.44
2022-09-13T18:36:54.304Z,14.39
2022-09-13T18:39:22.397Z,14.43
2022-09-13T18:41:49.206Z,14.33
2022-09-13T18:44:16.408Z,14.57
2022-09-13T18:46:43.158Z,14.45
2022-09-13T18:49:10.197Z,14.40
2022-09-13T18:51:38.302Z,14.37
2022-09-13T18:54:05.802Z,14.32
2022-09-13T18:56:32.879Z,14.48
2022-09-13T18:59:00.009Z,14.42
2022-09-13T19:01:27.997Z,14.27
2022-09-13T19:03:55.754Z,14.40
2022-09-13T19:06:23.410Z,14.45
2022-09-13T19:08:50.665Z,14.55
2022-09-13T19:11:42.056Z,14.47
2022-09-13T19:14:04.703Z,14.22
2022-09-13T19:16:31.038Z,14.26
2022-09-13T19:18:57.433Z,14.35
2022-09-13T19:21:25.009Z,14.17
2022-09-13T19:23:59.471Z,14.32
2022-09-13T19:26:31.954Z,14.19
2022-09-13T19:29:03.754Z,14.14
2022-09-13T19:31:30.920Z,13.99
2022-09-13T19:33:57.628Z,13.93
2022-09-13T19:36:25.921Z,14.02
2022-09-13T19:38:53.111Z,13.85
2022-09-13T19:41:20.583Z,13.80
2022-09-13T19:43:47.589Z,13.71
2022-09-13T19:46:14.919Z,13.68
2022-09-13T19:48:43.136Z,13.84
2022-09-13T19:51:11.039Z,13.96
2022-09-13T19:53:56.052Z,14.01
2022-09-13T19:56:25.014Z,14.06
2022-09-13T19:58:51.659Z,13.97
2022-09-13T20:01:23.538Z,14.31
2022-09-13T20:03:54.122Z,13.98
2022-09-13T20:06:20.464Z,14.14
2022-09-13T20:08:47.019Z,14.15
2022-09-13T20:11:16.080Z,14.09
2022-09-13T20:13:43.170Z,14.05
2022-09-13T20:16:15.578Z,14.32
2022-09-13T20:18:42.114Z,14.24
2022-09-13T20:21:09.418Z,14.22
2022-09-13T20:23:39.178Z,14.32
2022-09-13T20:26:13.320Z,14.42
2022-09-13T20:28:39.738Z,14.24
2022-09-13T20:31:06.215Z,14.27
2022-09-13T20:33:32.878Z,14.28
2022-09-13T20:36:02.935Z,14.25
2022-09-13T20:38:29.279Z,14.12
2022-09-13T20:40:55.776Z,14.36
2022-09-13T20:43:22.090Z,14.35
2022-09-13T20:45:56.284Z,14.19
2022-09-13T20:48:24.712Z,14.27
2022-09-13T20:51:01.212Z,14.39
2022-09-13T20:53:28.066Z,14.49
2022-09-13T20:55:54.738Z,14.45
2022-09-13T20:58:21.527Z,14.37
2022-09-13T21:00:48.232Z,14.37
2022-09-13T21:03:15.454Z,14.18
2022-09-13T21:05:42.390Z,14.34
2022-09-13T21:08:33.572Z,14.39
2022-09-13T21:11:03.273Z,14.41
2022-09-13T21:13:30.391Z,14.52
2022-09-13T21:16:02.048Z,14.45
2022-09-13T21:18:29.201Z,14.59
2022-09-13T21:20:58.728Z,14.62
2022-09-13T21:23:25.475Z,14.40
2022-09-13T21:25:51.859Z,14.32
2022-09-13T21:28:18.650Z,14.27
2022-09-13T21:30:54.833Z,14.43
2022-09-13T21:33:21.195Z,14.45
2022-09-13T21:35:47.486Z,14.50
2022-09-13T21:38:13.806Z,14.38
2022-09-13T21:40:41.132Z,14.52
2022-09-13T21:43:07.438Z,14.48
2022-09-13T21:45:33.859Z,14.55
2022-09-13T21:48:00.626Z,14.64
2022-09-13T21:50:26.972Z,14.53
2022-09-13T21:52:53.286Z,14.65
2022-09-13T21:55:19.581Z,14.61
2022-09-13T21:57:45.891Z,14.69
2022-09-13T22:00:14.117Z,14.56
2022-09-13T22:02:42.085Z,14.53
2022-09-13T22:05:08.586Z,14.68
2022-09-13T22:07:34.919Z,14.78
2022-09-13T22:10:01.223Z,14.91
2022-09-13T22:12:27.536Z,14.85
2022-09-13T22:14:53.855Z,14.63
2022-09-13T22:17:20.187Z,14.65
2022-09-13T22:19:46.492Z,14.76
2022-09-13T22:22:12.818Z,14.78
2022-09-13T22:24:39.124Z,14.91
2022-09-13T22:27:07.055Z,14.58
2022-09-13T22:29:33.468Z,14.60
2022-09-13T22:31:59.769Z,14.54
2022-09-13T22:34:26.362Z,14.49
2022-09-13T22:36:55.679Z,14.63
2022-09-13T22:39:22.341Z,14.66
2022-09-13T22:41:48.665Z,14.75
2022-09-13T22:44:15.466Z,14.77
2022-09-13T22:46:43.177Z,14.59
2022-09-13T22:49:13.727Z,14.89
2022-09-13T22:51:40.301Z,14.69
2022-09-13T22:54:07.818Z,14.50
2022-09-13T22:56:34.815Z,14.46
2022-09-13T22:59:02.355Z,14.62
2022-09-13T23:01:29.442Z,14.60
2022-09-13T23:03:56.285Z,14.41
2022-09-13T23:06:25.129Z,14.38
2022-09-13T23:08:52.299Z,14.45
2022-09-13T23:11:23.124Z,14.28
2022-09-13T23:13:50.385Z,14.07
2022-09-13T23:16:18.904Z,14.16
2022-09-13T23:18:45.788Z,14.16
2022-09-13T23:21:12.413Z,14.15
2022-09-13T23:23:38.919Z,14.32
2022-09-13T23:26:23.866Z,14.41
2022-09-13T23:28:56.074Z,14.35
2022-09-13T23:31:24.289Z,14.12
2022-09-13T23:33:51.711Z,13.86
2022-09-13T23:36:19.168Z,13.94
2022-09-13T23:38:46.903Z,13.94
2022-09-13T23:41:13.605Z,13.90
2022-09-13T23:43:40.415Z,14.02
2022-09-13T23:46:06.813Z,14.04
2022-09-13T23:48:35.042Z,14.04
2022-09-13T23:51:05.877Z,13.99
2022-09-13T23:53:32.805Z,13.63
2022-09-13T23:55:59.183Z,13.61
2022-09-13T23:58:26.092Z,13.61
